Skip Navigation Links
NOAA logo - Click to go to the NOAA homepage
NOAA's National Weather Service
Alaska Aviation Weather Unit
  NWS logo - Click to go to the NWS homepage
Left Navbar Graphic     12 AKDT = 20 GMT

   
NOAA is celebrating 200 years of science, service, and stewardship. Visit the NOAA 200th celebration Web site to learn more.
USA.gov is the U.S. Government's official Web portal to all Federal, state and local government Web resources and services.
Facebook
NWS on Facebook

Important Change Regarding the AAWU Web Presence

 

Over the last several months, the AAWU has been working to navigate its webpages to a nationally supported server. Security, as well as other needs, have necessitated the change.  We have been given an extension for the site changeover while we diligently work at addressing feedback received. As of July 14, 2017, aawu.arh.noaa.gov will be discontinued. The new AAWU web address is weather.gov/aawu. It is now live and will run in-parallel with the old site until it is discontinued on July 14, 2017. Please continue to send any feedback or questions regarding the new webpages to nws.ar.aawu.webauthors@noaa.gov.  Thank you for your patience during this time of transition.
AAWU Home :: Display TAF Add Bookmark
SPECI PARS 251415Z AUTO 00000KT 4SM -RA BR BKN043 OVC055 12/11 A2992 RMK
     AO2 P0001 $=

METAR PARS 251456Z AUTO 24004KT 3SM -RA BR BKN029 BKN040 OVC050
 12/11 A2993 RMK AO2 SLP138 P0002 60009 T01170111 56001 $=

SPECI PARS 251521Z AUTO 22004KT 2 1/2SM -RA BR BKN029 OVC035 11/11 A2993
     RMK AO2 P0000 $=

SPECI PARS 251527Z AUTO 22004KT 3SM -RA BR SCT029 OVC035 11/11 A2993 RMK
     AO2 P0000 $=

METAR PARS 251556Z AUTO 20004KT 3SM -RA BR OVC050 12/11 A2992 RMK
 AO2 SLP136 P0001 T01170111 $=

SPECI PARS 251652Z AUTO 26003KT 6SM -RA BR FEW008 BKN050 OVC055
 12/11 A2991 RMK AO2 P0000 $=

METAR PARS 251656Z AUTO 00000KT 5SM -RA BR BKN050 OVC055 12/11 A2991 RMK
     AO2 SLP134 P0000 T01170111 $=

SPECI PARS 251705Z AUTO 25003KT 4SM -RA BR FEW007 OVC050 12/11 A2991 RMK
     AO2 P0001 $=

PARS 251737Z AUTO 00000KT 2 1/2SM -RA BR FEW007 BKN035 OVC050
     12/12 A2991 RMK AO2 VIS 1 1/2V4 P0001 $=

SPECI PARS 251748Z AUTO 00000KT 4SM -RA BR FEW007 BKN033 OVC045 12/12
     A2991 RMK AO2 P0001 $=

METAR PARS 251756Z AUTO 00000KT 5SM -RA BR BKN007 BKN033 OVC042 12/12
     A2991 RMK AO2 CIG 005V010 SLP133 P0001 60011 T01220117 10122
     20111 56003 $=

SPECI PARS 251811Z AUTO 00000KT 2SM -RA BR FEW005 BKN009 OVC047 12/12
     A2991 RMK AO2 CIG 006V013 P0000 $=

SPECI PARS 251821Z AUTO 00000KT 3SM -RA BR FEW005 BKN009 OVC030 12/12
     A2991 RMK AO2 CIG 007V011 P0001 $=

SPECI PARS 251840Z AUTO 00000KT 3SM -RA BR SCT007 BKN011 OVC018 12/12
     A2991 RMK AO2 P0001 $=

SPECI PARS 251846Z AUTO 00000KT 4SM -RA BR BKN005 BKN011 OVC018 12/12
     A2991 RMK AO2 P0002 $=

METAR PARS 251856Z AUTO VRB03KT 2 1/2SM -RA BR BKN007 OVC011 12/12 A2991
     RMK AO2 VIS 1V5 CIG 005V008 SLP132 P0002 T01220117 $=

SPECI PARS 251909Z AUTO 00000KT 10SM -RA BKN007 OVC012 13/12 A2991 RMK
     AO2 CIG 005V010 P0000 $=

SPECI PARS 251942Z AUTO 27003KT 10SM SCT009 BKN013 OVC043 13/12 A2991
     RMK AO2 RAE12 P0000 $=

METAR PARS 251956Z AUTO 19003KT 10SM BKN011 OVC043 13/12 A2990 RMK AO2
     RAE12 SLP130 P0000 T01330117 $=

SPECI PARS 252021Z AUTO 21003KT 3SM BR BKN009 BKN015 OVC020 13/12 A2990
     RMK AO2 CIG 007V011 $=

SPECI PARS 252024Z AUTO 00000KT 1 3/4SM BR BKN009 BKN015 OVC020 13/12
     A2990 RMK AO2 CIG 007V011 $=

SPECI PARS 252038Z AUTO 00000KT 3SM -RA BR BKN007 BKN014 OVC020 13/12
     A2990 RMK AO2 RAB28 CIG 005V011 P0000 $=


NOAA's National Weather Service
Alaska Aviation Weather Unit
6930 Sand Lake Road
Anchorage, AK 99502-1845
Disclaimer
Credits
Glossary
Privacy Policy
About Us
Career Opportunities
Contact AAWU Internet Services Site last modified: April, 17th 2012